sensor_id;sensor_type;location;lat;lon;timestamp;P1;durP1;ratioP1;P2;durP2;ratioP2
6527;SDS011;64597;42.664;23.256;2023-03-01T00:01:59;3.20;;;2.35;;
6527;SDS011;64597;42.664;23.256;2023-03-01T00:04:24;5.68;;;3.03;;
6527;SDS011;64597;42.664;23.256;2023-03-01T00:06:50;3.60;;;2.45;;
6527;SDS011;64597;42.664;23.256;2023-03-01T00:09:16;4.60;;;2.30;;
6527;SDS011;64597;42.664;23.256;2023-03-01T00:11:42;4.28;;;2.55;;
6527;SDS011;64597;42.664;23.256;2023-03-01T00:14:08;4.13;;;3.05;;
6527;SDS011;64597;42.664;23.256;2023-03-01T00:16:35;5.20;;;2.65;;
6527;SDS011;64597;42.664;23.256;2023-03-01T00:19:03;4.05;;;2.67;;
6527;SDS011;64597;42.664;23.256;2023-03-01T00:21:29;5.63;;;2.47;;
6527;SDS011;64597;42.664;23.256;2023-03-01T00:23:55;3.97;;;2.30;;
6527;SDS011;64597;42.664;23.256;2023-03-01T00:26:22;5.10;;;2.42;;
6527;SDS011;64597;42.664;23.256;2023-03-01T00:28:49;3.88;;;2.35;;
6527;SDS011;64597;42.664;23.256;2023-03-01T00:31:18;4.18;;;2.65;;
6527;SDS011;64597;42.664;23.256;2023-03-01T00:33:45;4.32;;;2.55;;
6527;SDS011;64597;42.664;23.256;2023-03-01T00:36:12;3.10;;;1.92;;
6527;SDS011;64597;42.664;23.256;2023-03-01T00:38:41;3.50;;;1.98;;
6527;SDS011;64597;42.664;23.256;2023-03-01T00:41:10;3.80;;;2.30;;
6527;SDS011;64597;42.664;23.256;2023-03-01T00:43:37;3.65;;;2.05;;
6527;SDS011;64597;42.664;23.256;2023-03-01T00:46:03;3.35;;;2.35;;
6527;SDS011;64597;42.664;23.256;2023-03-01T00:48:35;3.08;;;2.00;;
6527;SDS011;64597;42.664;23.256;2023-03-01T00:51:08;2.75;;;1.67;;
6527;SDS011;64597;42.664;23.256;2023-03-01T00:53:45;1.55;;;1.35;;
6527;SDS011;64597;42.664;23.256;2023-03-01T00:56:11;3.47;;;2.15;;
6527;SDS011;64597;42.664;23.256;2023-03-01T00:58:38;2.90;;;1.77;;
6527;SDS011;64597;42.664;23.256;2023-03-01T01:01:08;3.22;;;1.50;;
6527;SDS011;64597;42.664;23.256;2023-03-01T01:03:48;3.45;;;1.73;;
6527;SDS011;64597;42.664;23.256;2023-03-01T01:06:20;3.15;;;2.03;;
6527;SDS011;64597;42.664;23.256;2023-03-01T01:08:47;3.15;;;2.20;;
6527;SDS011;64597;42.664;23.256;2023-03-01T01:11:13;3.25;;;1.73;;
6527;SDS011;64597;42.664;23.256;2023-03-01T01:13:40;3.25;;;1.95;;
6527;SDS011;64597;42.664;23.256;2023-03-01T01:16:06;1.88;;;1.50;;
6527;SDS011;64597;42.664;23.256;2023-03-01T01:18:33;3.03;;;1.60;;
6527;SDS011;64597;42.664;23.256;2023-03-01T01:21:03;3.05;;;1.85;;
6527;SDS011;64597;42.664;23.256;2023-03-01T01:23:39;2.35;;;1.80;;
6527;SDS011;64597;42.664;23.256;2023-03-01T01:26:07;2.67;;;1.92;;
6527;SDS011;64597;42.664;23.256;2023-03-01T01:28:34;2.50;;;1.50;;
6527;SDS011;64597;42.664;23.256;2023-03-01T01:31:01;2.20;;;1.73;;
6527;SDS011;64597;42.664;23.256;2023-03-01T01:33:26;2.53;;;1.73;;
6527;SDS011;64597;42.664;23.256;2023-03-01T01:35:52;2.53;;;1.50;;
6527;SDS011;64597;42.664;23.256;2023-03-01T01:38:18;2.65;;;1.42;;
6527;SDS011;64597;42.664;23.256;2023-03-01T01:40:44;1.63;;;1.10;;
6527;SDS011;64597;42.664;23.256;2023-03-01T01:43:14;4.13;;;1.58;;
6527;SDS011;64597;42.664;23.256;2023-03-01T01:45:47;2.22;;;1.77;;
6527;SDS011;64597;42.664;23.256;2023-03-01T01:48:15;2.70;;;1.45;;
6527;SDS011;64597;42.664;23.256;2023-03-01T01:50:44;1.65;;;1.38;;
6527;SDS011;64597;42.664;23.256;2023-03-01T01:53:15;2.97;;;1.42;;
6527;SDS011;64597;42.664;23.256;2023-03-01T01:55:48;1.70;;;1.20;;
6527;SDS011;64597;42.664;23.256;2023-03-01T01:58:18;2.22;;;1.40;;
6527;SDS011;64597;42.664;23.256;2023-03-01T02:00:45;1.67;;;1.10;;
6527;SDS011;64597;42.664;23.256;2023-03-01T02:03:13;2.45;;;1.23;;
6527;SDS011;64597;42.664;23.256;2023-03-01T02:05:49;1.88;;;1.20;;
6527;SDS011;64597;42.664;23.256;2023-03-01T02:10:45;1.77;;;1.20;;
6527;SDS011;64597;42.664;23.256;2023-03-01T02:13:11;1.63;;;1.10;;
6527;SDS011;64597;42.664;23.256;2023-03-01T02:15:38;2.08;;;1.40;;
6527;SDS011;64597;42.664;23.256;2023-03-01T02:18:05;2.67;;;1.10;;
6527;SDS011;64597;42.664;23.256;2023-03-01T02:23:21;1.17;;;1.08;;
6527;SDS011;64597;42.664;23.256;2023-03-01T02:30:51;1.30;;;1.13;;
6527;SDS011;64597;42.664;23.256;2023-03-01T02:33:37;2.13;;;1.50;;
6527;SDS011;64597;42.664;23.256;2023-03-01T02:36:06;2.10;;;1.20;;
6527;SDS011;64597;42.664;23.256;2023-03-01T02:38:35;1.80;;;1.20;;
6527;SDS011;64597;42.664;23.256;2023-03-01T02:41:00;2.80;;;1.35;;
6527;SDS011;64597;42.664;23.256;2023-03-01T02:43:30;1.77;;;1.02;;
6527;SDS011;64597;42.664;23.256;2023-03-01T02:45:58;3.03;;;1.65;;
6527;SDS011;64597;42.664;23.256;2023-03-01T02:48:38;3.22;;;1.60;;
6527;SDS011;64597;42.664;23.256;2023-03-01T02:56:46;1.83;;;1.30;;
6527;SDS011;64597;42.664;23.256;2023-03-01T02:59:17;2.63;;;1.55;;
6527;SDS011;64597;42.664;23.256;2023-03-01T03:01:46;2.70;;;1.35;;
6527;SDS011;64597;42.664;23.256;2023-03-01T03:04:16;2.33;;;1.60;;
6527;SDS011;64597;42.664;23.256;2023-03-01T03:06:46;1.65;;;1.23;;
6527;SDS011;64597;42.664;23.256;2023-03-01T03:09:14;2.90;;;1.40;;
6527;SDS011;64597;42.664;23.256;2023-03-01T03:11:40;2.95;;;1.95;;
6527;SDS011;64597;42.664;23.256;2023-03-01T03:14:07;3.00;;;1.95;;
6527;SDS011;64597;42.664;23.256;2023-03-01T03:16:39;3.83;;;2.33;;
6527;SDS011;64597;42.664;23.256;2023-03-01T03:19:06;2.70;;;1.83;;
6527;SDS011;64597;42.664;23.256;2023-03-01T03:21:32;3.42;;;2.42;;
6527;SDS011;64597;42.664;23.256;2023-03-01T03:23:58;3.35;;;2.30;;
6527;SDS011;64597;42.664;23.256;2023-03-01T03:26:23;3.13;;;2.10;;
6527;SDS011;64597;42.664;23.256;2023-03-01T03:28:49;4.18;;;2.70;;
6527;SDS011;64597;42.664;23.256;2023-03-01T03:31:14;4.70;;;2.63;;
6527;SDS011;64597;42.664;23.256;2023-03-01T03:33:40;4.47;;;3.20;;
6527;SDS011;64597;42.664;23.256;2023-03-01T03:36:05;4.15;;;2.60;;
6527;SDS011;64597;42.664;23.256;2023-03-01T03:38:31;3.70;;;2.55;;
6527;SDS011;64597;42.664;23.256;2023-03-01T03:41:01;3.85;;;2.65;;
6527;SDS011;64597;42.664;23.256;2023-03-01T03:43:29;3.83;;;2.30;;
6527;SDS011;64597;42.664;23.256;2023-03-01T03:45:56;3.10;;;2.20;;
6527;SDS011;64597;42.664;23.256;2023-03-01T03:48:41;4.68;;;2.85;;
6527;SDS011;64597;42.664;23.256;2023-03-01T03:51:12;4.57;;;2.40;;
6527;SDS011;64597;42.664;23.256;2023-03-01T03:53:39;4.68;;;2.72;;
6527;SDS011;64597;42.664;23.256;2023-03-01T03:56:05;4.00;;;2.30;;
6527;SDS011;64597;42.664;23.256;2023-03-01T03:58:31;4.95;;;2.13;;
6527;SDS011;64597;42.664;23.256;2023-03-01T04:00:57;3.38;;;2.17;;
6527;SDS011;64597;42.664;23.256;2023-03-01T04:03:23;4.32;;;2.47;;
6527;SDS011;64597;42.664;23.256;2023-03-01T04:05:50;3.95;;;2.45;;
6527;SDS011;64597;42.664;23.256;2023-03-01T04:08:20;3.47;;;2.33;;
6527;SDS011;64597;42.664;23.256;2023-03-01T04:10:49;3.72;;;1.92;;
6527;SDS011;64597;42.664;23.256;2023-03-01T04:13:17;3.97;;;2.30;;
6527;SDS011;64597;42.664;23.256;2023-03-01T04:15:45;4.13;;;2.47;;
6527;SDS011;64597;42.664;23.256;2023-03-01T04:18:14;2.97;;;1.60;;
6527;SDS011;64597;42.664;23.256;2023-03-01T04:20:41;4.18;;;1.80;;
6527;SDS011;64597;42.664;23.256;2023-03-01T04:23:08;3.30;;;2.00;;
6527;SDS011;64597;42.664;23.256;2023-03-01T04:28:30;2.97;;;1.85;;
6527;SDS011;64597;42.664;23.256;2023-03-01T04:31:19;3.15;;;1.83;;
6527;SDS011;64597;42.664;23.256;2023-03-01T04:33:53;2.58;;;1.60;;
6527;SDS011;64597;42.664;23.256;2023-03-01T04:36:21;3.25;;;2.17;;
6527;SDS011;64597;42.664;23.256;2023-03-01T04:38:48;2.63;;;1.58;;
6527;SDS011;64597;42.664;23.256;2023-03-01T04:41:14;2.72;;;1.52;;
6527;SDS011;64597;42.664;23.256;2023-03-01T04:43:44;3.55;;;2.03;;
6527;SDS011;64597;42.664;23.256;2023-03-01T04:46:11;2.92;;;1.98;;
6527;SDS011;64597;42.664;23.256;2023-03-01T04:48:38;3.72;;;2.00;;
6527;SDS011;64597;42.664;23.256;2023-03-01T04:51:05;3.75;;;2.25;;
6527;SDS011;64597;42.664;23.256;2023-03-01T04:53:33;3.42;;;2.17;;
6527;SDS011;64597;42.664;23.256;2023-03-01T04:56:01;3.20;;;1.98;;
6527;SDS011;64597;42.664;23.256;2023-03-01T04:58:27;4.38;;;2.08;;
6527;SDS011;64597;42.664;23.256;2023-03-01T05:00:53;3.70;;;2.10;;
6527;SDS011;64597;42.664;23.256;2023-03-01T05:03:19;3.83;;;2.60;;
6527;SDS011;64597;42.664;23.256;2023-03-01T05:05:49;3.53;;;2.20;;
6527;SDS011;64597;42.664;23.256;2023-03-01T05:08:16;3.38;;;2.10;;
6527;SDS011;64597;42.664;23.256;2023-03-01T05:10:47;3.88;;;2.10;;
6527;SDS011;64597;42.664;23.256;2023-03-01T05:13:14;3.33;;;2.33;;
6527;SDS011;64597;42.664;23.256;2023-03-01T05:15:45;3.38;;;2.40;;
6527;SDS011;64597;42.664;23.256;2023-03-01T05:18:18;4.30;;;2.45;;
6527;SDS011;64597;42.664;23.256;2023-03-01T05:20:44;2.95;;;1.88;;
6527;SDS011;64597;42.664;23.256;2023-03-01T05:23:09;3.20;;;1.88;;
6527;SDS011;64597;42.664;23.256;2023-03-01T05:25:35;2.35;;;1.80;;
6527;SDS011;64597;42.664;23.256;2023-03-01T05:28:05;2.67;;;2.08;;
6527;SDS011;64597;42.664;23.256;2023-03-01T05:30:32;3.20;;;2.13;;
6527;SDS011;64597;42.664;23.256;2023-03-01T05:32:58;3.45;;;2.78;;
6527;SDS011;64597;42.664;23.256;2023-03-01T05:35:24;3.28;;;1.92;;
6527;SDS011;64597;42.664;23.256;2023-03-01T05:37:50;4.32;;;2.25;;
6527;SDS011;64597;42.664;23.256;2023-03-01T05:40:17;2.40;;;2.13;;
6527;SDS011;64597;42.664;23.256;2023-03-01T05:42:44;2.97;;;1.75;;
6527;SDS011;64597;42.664;23.256;2023-03-01T05:45:12;3.50;;;2.03;;
6527;SDS011;64597;42.664;23.256;2023-03-01T05:47:43;4.50;;;1.65;;
6527;SDS011;64597;42.664;23.256;2023-03-01T05:50:11;5.30;;;2.33;;
6527;SDS011;64597;42.664;23.256;2023-03-01T05:52:37;3.80;;;2.60;;
6527;SDS011;64597;42.664;23.256;2023-03-01T05:55:03;3.75;;;2.20;;
6527;SDS011;64597;42.664;23.256;2023-03-01T05:57:29;2.58;;;2.17;;
6527;SDS011;64597;42.664;23.256;2023-03-01T05:59:54;2.50;;;1.77;;
6527;SDS011;64597;42.664;23.256;2023-03-01T06:02:20;2.55;;;1.60;;
6527;SDS011;64597;42.664;23.256;2023-03-01T06:04:45;2.33;;;1.70;;
6527;SDS011;64597;42.664;23.256;2023-03-01T06:07:11;3.67;;;2.22;;
6527;SDS011;64597;42.664;23.256;2023-03-01T06:09:36;2.47;;;1.80;;
6527;SDS011;64597;42.664;23.256;2023-03-01T06:12:01;2.95;;;1.88;;
6527;SDS011;64597;42.664;23.256;2023-03-01T06:14:27;4.63;;;2.40;;
6527;SDS011;64597;42.664;23.256;2023-03-01T06:16:52;3.63;;;2.08;;
6527;SDS011;64597;42.664;23.256;2023-03-01T06:19:18;2.75;;;1.92;;
6527;SDS011;64597;42.664;23.256;2023-03-01T06:21:43;2.95;;;1.90;;
6527;SDS011;64597;42.664;23.256;2023-03-01T06:24:09;2.28;;;1.40;;
6527;SDS011;64597;42.664;23.256;2023-03-01T06:26:34;3.20;;;1.67;;
6527;SDS011;64597;42.664;23.256;2023-03-01T06:28:59;2.58;;;1.85;;
6527;SDS011;64597;42.664;23.256;2023-03-01T06:31:25;2.90;;;1.50;;
6527;SDS011;64597;42.664;23.256;2023-03-01T06:33:50;3.03;;;1.73;;
6527;SDS011;64597;42.664;23.256;2023-03-01T06:36:16;2.83;;;1.73;;
6527;SDS011;64597;42.664;23.256;2023-03-01T06:38:43;3.47;;;1.90;;
6527;SDS011;64597;42.664;23.256;2023-03-01T06:41:09;2.63;;;2.13;;
6527;SDS011;64597;42.664;23.256;2023-03-01T06:43:35;2.97;;;1.85;;
6527;SDS011;64597;42.664;23.256;2023-03-01T06:46:03;2.30;;;1.75;;
6527;SDS011;64597;42.664;23.256;2023-03-01T06:48:30;3.97;;;2.05;;
6527;SDS011;64597;42.664;23.256;2023-03-01T06:50:57;4.55;;;1.98;;
6527;SDS011;64597;42.664;23.256;2023-03-01T06:53:23;3.53;;;1.70;;
6527;SDS011;64597;42.664;23.256;2023-03-01T06:55:53;3.05;;;2.00;;
6527;SDS011;64597;42.664;23.256;2023-03-01T06:58:19;3.28;;;1.80;;
6527;SDS011;64597;42.664;23.256;2023-03-01T07:00:45;3.22;;;1.73;;
6527;SDS011;64597;42.664;23.256;2023-03-01T07:03:10;2.35;;;1.90;;
6527;SDS011;64597;42.664;23.256;2023-03-01T07:05:36;3.33;;;1.88;;
6527;SDS011;64597;42.664;23.256;2023-03-01T07:08:01;3.45;;;2.10;;
6527;SDS011;64597;42.664;23.256;2023-03-01T07:10:27;2.83;;;1.92;;
6527;SDS011;64597;42.664;23.256;2023-03-01T07:12:56;2.65;;;1.80;;
6527;SDS011;64597;42.664;23.256;2023-03-01T07:15:22;3.25;;;1.73;;
6527;SDS011;64597;42.664;23.256;2023-03-01T07:17:48;3.33;;;1.98;;
6527;SDS011;64597;42.664;23.256;2023-03-01T07:20:15;2.78;;;2.20;;
6527;SDS011;64597;42.664;23.256;2023-03-01T07:22:41;2.85;;;1.88;;
6527;SDS011;64597;42.664;23.256;2023-03-01T07:25:07;3.10;;;1.85;;
6527;SDS011;64597;42.664;23.256;2023-03-01T07:27:34;2.40;;;1.70;;
6527;SDS011;64597;42.664;23.256;2023-03-01T07:29:59;2.22;;;1.65;;
6527;SDS011;64597;42.664;23.256;2023-03-01T07:32:24;2.70;;;1.75;;
6527;SDS011;64597;42.664;23.256;2023-03-01T07:34:50;2.95;;;1.85;;
6527;SDS011;64597;42.664;23.256;2023-03-01T07:37:16;1.83;;;1.63;;
6527;SDS011;64597;42.664;23.256;2023-03-01T07:39:42;2.70;;;2.30;;
6527;SDS011;64597;42.664;23.256;2023-03-01T07:42:07;4.72;;;1.70;;
6527;SDS011;64597;42.664;23.256;2023-03-01T07:44:33;3.30;;;1.75;;
6527;SDS011;64597;42.664;23.256;2023-03-01T07:47:03;3.00;;;1.50;;
6527;SDS011;64597;42.664;23.256;2023-03-01T07:49:28;3.20;;;1.83;;
6527;SDS011;64597;42.664;23.256;2023-03-01T07:51:54;5.60;;;2.10;;
6527;SDS011;64597;42.664;23.256;2023-03-01T07:54:19;3.88;;;1.92;;
6527;SDS011;64597;42.664;23.256;2023-03-01T07:56:45;4.85;;;2.40;;
6527;SDS011;64597;42.664;23.256;2023-03-01T07:59:10;2.80;;;2.03;;
6527;SDS011;64597;42.664;23.256;2023-03-01T08:01:36;2.13;;;1.23;;
6527;SDS011;64597;42.664;23.256;2023-03-01T08:04:01;3.85;;;2.10;;
6527;SDS011;64597;42.664;23.256;2023-03-01T08:06:27;2.83;;;2.00;;
6527;SDS011;64597;42.664;23.256;2023-03-01T08:08:52;3.38;;;1.60;;
6527;SDS011;64597;42.664;23.256;2023-03-01T08:11:20;2.25;;;1.50;;
6527;SDS011;64597;42.664;23.256;2023-03-01T08:13:47;2.67;;;1.77;;
6527;SDS011;64597;42.664;23.256;2023-03-01T08:16:14;2.95;;;1.95;;
6527;SDS011;64597;42.664;23.256;2023-03-01T08:18:40;3.33;;;2.00;;
6527;SDS011;64597;42.664;23.256;2023-03-01T08:21:16;3.85;;;1.80;;
6527;SDS011;64597;42.664;23.256;2023-03-01T08:23:43;1.80;;;1.27;;
6527;SDS011;64597;42.664;23.256;2023-03-01T08:26:10;3.38;;;1.60;;
6527;SDS011;64597;42.664;23.256;2023-03-01T08:28:38;1.95;;;1.38;;
6527;SDS011;64597;42.664;23.256;2023-03-01T08:31:14;4.97;;;2.28;;
6527;SDS011;64597;42.664;23.256;2023-03-01T08:33:42;5.10;;;2.53;;
6527;SDS011;64597;42.664;23.256;2023-03-01T08:36:07;5.22;;;3.50;;
6527;SDS011;64597;42.664;23.256;2023-03-01T08:38:33;4.65;;;2.95;;
6527;SDS011;64597;42.664;23.256;2023-03-01T08:41:02;4.78;;;3.45;;
6527;SDS011;64597;42.664;23.256;2023-03-01T08:43:28;5.47;;;3.13;;
6527;SDS011;64597;42.664;23.256;2023-03-01T08:45:54;4.70;;;3.22;;
6527;SDS011;64597;42.664;23.256;2023-03-01T08:48:20;4.03;;;2.92;;
6527;SDS011;64597;42.664;23.256;2023-03-01T08:50:45;5.85;;;3.00;;
6527;SDS011;64597;42.664;23.256;2023-03-01T08:53:11;4.18;;;2.45;;
6527;SDS011;64597;42.664;23.256;2023-03-01T08:55:37;4.07;;;2.40;;
6527;SDS011;64597;42.664;23.256;2023-03-01T08:58:02;3.28;;;1.98;;
6527;SDS011;64597;42.664;23.256;2023-03-01T09:00:28;4.68;;;1.92;;
6527;SDS011;64597;42.664;23.256;2023-03-01T09:02:53;3.13;;;1.58;;
6527;SDS011;64597;42.664;23.256;2023-03-01T09:05:18;3.00;;;1.60;;
6527;SDS011;64597;42.664;23.256;2023-03-01T09:07:44;2.53;;;1.48;;
6527;SDS011;64597;42.664;23.256;2023-03-01T09:10:09;4.95;;;1.92;;
6527;SDS011;64597;42.664;23.256;2023-03-01T09:12:35;2.50;;;1.95;;
6527;SDS011;64597;42.664;23.256;2023-03-01T09:15:01;2.80;;;1.80;;
6527;SDS011;64597;42.664;23.256;2023-03-01T09:17:26;1.55;;;1.33;;
6527;SDS011;64597;42.664;23.256;2023-03-01T09:19:52;1.92;;;1.58;;
6527;SDS011;64597;42.664;23.256;2023-03-01T09:22:17;4.07;;;2.13;;
6527;SDS011;64597;42.664;23.256;2023-03-01T09:24:43;5.32;;;2.75;;
6527;SDS011;64597;42.664;23.256;2023-03-01T09:27:08;5.28;;;2.63;;
6527;SDS011;64597;42.664;23.256;2023-03-01T09:29:35;4.90;;;2.45;;
6527;SDS011;64597;42.664;23.256;2023-03-01T09:32:01;4.75;;;2.42;;
6527;SDS011;64597;42.664;23.256;2023-03-01T09:34:27;4.03;;;2.30;;
6527;SDS011;64597;42.664;23.256;2023-03-01T09:36:52;3.67;;;1.90;;
6527;SDS011;64597;42.664;23.256;2023-03-01T09:39:18;3.50;;;2.08;;
6527;SDS011;64597;42.664;23.256;2023-03-01T09:44:36;2.85;;;1.77;;
6527;SDS011;64597;42.664;23.256;2023-03-01T09:47:05;4.32;;;2.10;;
6527;SDS011;64597;42.664;23.256;2023-03-01T09:49:35;3.45;;;1.90;;
6527;SDS011;64597;42.664;23.256;2023-03-01T09:54:54;2.85;;;1.60;;
6527;SDS011;64597;42.664;23.256;2023-03-01T09:57:33;4.18;;;1.75;;
6527;SDS011;64597;42.664;23.256;2023-03-01T10:02:48;3.55;;;1.70;;
6527;SDS011;64597;42.664;23.256;2023-03-01T10:10:57;2.78;;;1.70;;
6527;SDS011;64597;42.664;23.256;2023-03-01T10:16:14;3.30;;;1.67;;
6527;SDS011;64597;42.664;23.256;2023-03-01T10:18:42;4.43;;;1.75;;
6527;SDS011;64597;42.664;23.256;2023-03-01T10:21:13;3.28;;;1.73;;
6527;SDS011;64597;42.664;23.256;2023-03-01T10:23:41;3.50;;;1.70;;
6527;SDS011;64597;42.664;23.256;2023-03-01T10:31:13;3.70;;;1.70;;
6527;SDS011;64597;42.664;23.256;2023-03-01T10:33:43;3.42;;;1.90;;
6527;SDS011;64597;42.664;23.256;2023-03-01T10:36:08;5.63;;;2.10;;
6527;SDS011;64597;42.664;23.256;2023-03-01T10:38:55;4.35;;;1.85;;
6527;SDS011;64597;42.664;23.256;2023-03-01T10:41:24;3.47;;;1.92;;
6527;SDS011;64597;42.664;23.256;2023-03-01T10:43:52;2.72;;;1.73;;
6527;SDS011;64597;42.664;23.256;2023-03-01T10:51:43;2.80;;;1.58;;
6527;SDS011;64597;42.664;23.256;2023-03-01T10:56:56;3.65;;;2.20;;
6527;SDS011;64597;42.664;23.256;2023-03-01T10:59:34;3.00;;;1.80;;
6527;SDS011;64597;42.664;23.256;2023-03-01T11:04:58;5.65;;;2.17;;
6527;SDS011;64597;42.664;23.256;2023-03-01T11:07:26;3.05;;;1.70;;
6527;SDS011;64597;42.664;23.256;2023-03-01T11:09:51;4.72;;;2.20;;
6527;SDS011;64597;42.664;23.256;2023-03-01T11:12:17;5.47;;;3.42;;
6527;SDS011;64597;42.664;23.256;2023-03-01T11:14:47;4.82;;;1.80;;
6527;SDS011;64597;42.664;23.256;2023-03-01T11:19:42;4.10;;;2.10;;
6527;SDS011;64597;42.664;23.256;2023-03-01T11:22:16;5.60;;;2.20;;
6527;SDS011;64597;42.664;23.256;2023-03-01T11:27:25;4.32;;;2.30;;
6527;SDS011;64597;42.664;23.256;2023-03-01T11:32:42;5.78;;;2.28;;
6527;SDS011;64597;42.664;23.256;2023-03-01T11:35:23;5.15;;;2.60;;
6527;SDS011;64597;42.664;23.256;2023-03-01T11:48:50;4.25;;;2.42;;
6527;SDS011;64597;42.664;23.256;2023-03-01T11:54:02;5.20;;;2.38;;
6527;SDS011;64597;42.664;23.256;2023-03-01T11:56:45;3.67;;;2.10;;
6527;SDS011;64597;42.664;23.256;2023-03-01T12:07:05;4.90;;;2.92;;
6527;SDS011;64597;42.664;23.256;2023-03-01T12:28:16;2.97;;;2.28;;
6527;SDS011;64597;42.664;23.256;2023-03-01T12:47:19;3.75;;;2.40;;
6527;SDS011;64597;42.664;23.256;2023-03-01T12:50:04;4.00;;;2.40;;
6527;SDS011;64597;42.664;23.256;2023-03-01T12:52:41;4.18;;;2.38;;
6527;SDS011;64597;42.664;23.256;2023-03-01T12:55:54;4.18;;;2.60;;
6527;SDS011;64597;42.664;23.256;2023-03-01T13:01:05;4.13;;;2.40;;
6527;SDS011;64597;42.664;23.256;2023-03-01T13:06:10;6.65;;;3.05;;
6527;SDS011;64597;42.664;23.256;2023-03-01T13:11:20;7.22;;;2.25;;
6527;SDS011;64597;42.664;23.256;2023-03-01T13:13:47;4.28;;;2.25;;
6527;SDS011;64597;42.664;23.256;2023-03-01T13:16:56;7.20;;;2.95;;
6527;SDS011;64597;42.664;23.256;2023-03-01T13:21:39;3.10;;;2.22;;
6527;SDS011;64597;42.664;23.256;2023-03-01T13:24:22;3.90;;;2.10;;
6527;SDS011;64597;42.664;23.256;2023-03-01T13:34:49;7.05;;;2.53;;
6527;SDS011;64597;42.664;23.256;2023-03-01T13:37:36;7.25;;;3.17;;
6527;SDS011;64597;42.664;23.256;2023-03-01T13:40:04;3.58;;;2.60;;
6527;SDS011;64597;42.664;23.256;2023-03-01T13:42:51;4.72;;;2.40;;
6527;SDS011;64597;42.664;23.256;2023-03-01T13:48:21;4.10;;;2.10;;
6527;SDS011;64597;42.664;23.256;2023-03-01T13:50:54;3.78;;;3.05;;
6527;SDS011;64597;42.664;23.256;2023-03-01T13:53:25;3.83;;;2.72;;
6527;SDS011;64597;42.664;23.256;2023-03-01T13:56:12;6.28;;;2.50;;
6527;SDS011;64597;42.664;23.256;2023-03-01T13:59:00;3.65;;;2.50;;
6527;SDS011;64597;42.664;23.256;2023-03-01T14:01:34;3.60;;;2.60;;
6527;SDS011;64597;42.664;23.256;2023-03-01T14:04:16;4.03;;;2.33;;
6527;SDS011;64597;42.664;23.256;2023-03-01T14:06:50;3.50;;;2.28;;
6527;SDS011;64597;42.664;23.256;2023-03-01T14:09:18;2.80;;;1.90;;
6527;SDS011;64597;42.664;23.256;2023-03-01T14:20:07;5.47;;;2.67;;
6527;SDS011;64597;42.664;23.256;2023-03-01T14:22:41;3.67;;;2.13;;
6527;SDS011;64597;42.664;23.256;2023-03-01T14:27:51;6.82;;;2.63;;
6527;SDS011;64597;42.664;23.256;2023-03-01T14:30:24;10.75;;;3.95;;
6527;SDS011;64597;42.664;23.256;2023-03-01T14:32:56;6.55;;;2.00;;
6527;SDS011;64597;42.664;23.256;2023-03-01T14:35:25;4.00;;;2.53;;
6527;SDS011;64597;42.664;23.256;2023-03-01T14:37:53;4.07;;;2.30;;
6527;SDS011;64597;42.664;23.256;2023-03-01T14:40:23;3.90;;;1.92;;
6527;SDS011;64597;42.664;23.256;2023-03-01T14:42:52;4.00;;;2.40;;
6527;SDS011;64597;42.664;23.256;2023-03-01T14:45:20;3.50;;;2.78;;
6527;SDS011;64597;42.664;23.256;2023-03-01T14:47:45;4.25;;;2.17;;
6527;SDS011;64597;42.664;23.256;2023-03-01T14:50:24;5.30;;;2.45;;
6527;SDS011;64597;42.664;23.256;2023-03-01T14:52:52;4.05;;;2.53;;
6527;SDS011;64597;42.664;23.256;2023-03-01T14:55:31;4.50;;;2.80;;
6527;SDS011;64597;42.664;23.256;2023-03-01T14:58:03;5.53;;;3.60;;
6527;SDS011;64597;42.664;23.256;2023-03-01T15:00:31;5.68;;;2.55;;
6527;SDS011;64597;42.664;23.256;2023-03-01T15:03:10;4.18;;;2.30;;
6527;SDS011;64597;42.664;23.256;2023-03-01T15:05:39;4.50;;;2.83;;
6527;SDS011;64597;42.664;23.256;2023-03-01T15:08:08;4.75;;;2.60;;
6527;SDS011;64597;42.664;23.256;2023-03-01T15:10:54;4.10;;;2.47;;
6527;SDS011;64597;42.664;23.256;2023-03-01T15:13:22;4.57;;;2.55;;
6527;SDS011;64597;42.664;23.256;2023-03-01T15:15:50;4.60;;;2.83;;
6527;SDS011;64597;42.664;23.256;2023-03-01T15:20:50;5.38;;;2.55;;
6527;SDS011;64597;42.664;23.256;2023-03-01T15:23:21;3.83;;;2.22;;
6527;SDS011;64597;42.664;23.256;2023-03-01T15:25:52;5.25;;;3.15;;
6527;SDS011;64597;42.664;23.256;2023-03-01T15:28:22;6.07;;;3.33;;
6527;SDS011;64597;42.664;23.256;2023-03-01T15:30:55;5.32;;;2.47;;
6527;SDS011;64597;42.664;23.256;2023-03-01T15:33:37;5.43;;;2.72;;
6527;SDS011;64597;42.664;23.256;2023-03-01T15:36:04;6.20;;;3.58;;
6527;SDS011;64597;42.664;23.256;2023-03-01T15:39:23;5.15;;;2.55;;
6527;SDS011;64597;42.664;23.256;2023-03-01T15:41:58;5.47;;;2.97;;
6527;SDS011;64597;42.664;23.256;2023-03-01T15:44:34;7.55;;;4.07;;
6527;SDS011;64597;42.664;23.256;2023-03-01T15:47:01;8.65;;;3.15;;
6527;SDS011;64597;42.664;23.256;2023-03-01T15:49:46;5.38;;;2.95;;
6527;SDS011;64597;42.664;23.256;2023-03-01T15:52:16;6.50;;;3.25;;
6527;SDS011;64597;42.664;23.256;2023-03-01T15:54:46;5.55;;;2.70;;
6527;SDS011;64597;42.664;23.256;2023-03-01T15:57:14;6.28;;;3.17;;
6527;SDS011;64597;42.664;23.256;2023-03-01T15:59:42;4.53;;;2.90;;
6527;SDS011;64597;42.664;23.256;2023-03-01T16:02:12;3.63;;;2.30;;
6527;SDS011;64597;42.664;23.256;2023-03-01T16:04:38;5.90;;;3.10;;
6527;SDS011;64597;42.664;23.256;2023-03-01T16:07:04;7.38;;;3.35;;
6527;SDS011;64597;42.664;23.256;2023-03-01T16:09:30;6.05;;;3.22;;
6527;SDS011;64597;42.664;23.256;2023-03-01T16:11:55;7.50;;;3.35;;
6527;SDS011;64597;42.664;23.256;2023-03-01T16:14:21;5.45;;;2.92;;
6527;SDS011;64597;42.664;23.256;2023-03-01T16:16:47;6.60;;;2.92;;
6527;SDS011;64597;42.664;23.256;2023-03-01T16:19:13;6.80;;;2.83;;
6527;SDS011;64597;42.664;23.256;2023-03-01T16:21:38;4.63;;;3.20;;
6527;SDS011;64597;42.664;23.256;2023-03-01T16:24:05;5.25;;;3.30;;
6527;SDS011;64597;42.664;23.256;2023-03-01T16:26:31;6.68;;;2.90;;
6527;SDS011;64597;42.664;23.256;2023-03-01T16:28:57;6.78;;;3.30;;
6527;SDS011;64597;42.664;23.256;2023-03-01T16:31:23;6.38;;;3.33;;
6527;SDS011;64597;42.664;23.256;2023-03-01T16:33:52;5.68;;;3.10;;
6527;SDS011;64597;42.664;23.256;2023-03-01T16:36:19;9.15;;;3.55;;
6527;SDS011;64597;42.664;23.256;2023-03-01T16:38:48;6.80;;;2.85;;
6527;SDS011;64597;42.664;23.256;2023-03-01T16:41:14;5.65;;;3.00;;
6527;SDS011;64597;42.664;23.256;2023-03-01T16:43:42;6.25;;;3.03;;
6527;SDS011;64597;42.664;23.256;2023-03-01T16:46:11;5.07;;;2.70;;
6527;SDS011;64597;42.664;23.256;2023-03-01T16:48:38;4.32;;;2.58;;
6527;SDS011;64597;42.664;23.256;2023-03-01T16:51:04;6.22;;;2.80;;
6527;SDS011;64597;42.664;23.256;2023-03-01T16:53:30;4.22;;;2.40;;
6527;SDS011;64597;42.664;23.256;2023-03-01T16:55:56;4.15;;;2.40;;
6527;SDS011;64597;42.664;23.256;2023-03-01T16:58:23;6.82;;;2.60;;
6527;SDS011;64597;42.664;23.256;2023-03-01T17:03:22;4.78;;;3.08;;
6527;SDS011;64597;42.664;23.256;2023-03-01T17:05:49;7.28;;;3.22;;
6527;SDS011;64597;42.664;23.256;2023-03-01T17:08:15;8.07;;;3.13;;
6527;SDS011;64597;42.664;23.256;2023-03-01T17:10:41;3.92;;;2.53;;
6527;SDS011;64597;42.664;23.256;2023-03-01T17:13:07;7.18;;;2.83;;
6527;SDS011;64597;42.664;23.256;2023-03-01T17:15:39;4.57;;;3.30;;
6527;SDS011;64597;42.664;23.256;2023-03-01T17:18:06;5.68;;;2.70;;
6527;SDS011;64597;42.664;23.256;2023-03-01T17:20:33;4.75;;;2.60;;
6527;SDS011;64597;42.664;23.256;2023-03-01T17:22:58;6.60;;;3.38;;
6527;SDS011;64597;42.664;23.256;2023-03-01T17:25:24;8.32;;;4.00;;
6527;SDS011;64597;42.664;23.256;2023-03-01T17:27:50;5.85;;;3.20;;
6527;SDS011;64597;42.664;23.256;2023-03-01T17:30:15;3.88;;;2.60;;
6527;SDS011;64597;42.664;23.256;2023-03-01T17:32:41;5.47;;;2.85;;